AZU4160 SBRF-SBTE
Flight info
| Callsign | AZU4160 |
|---|---|
| Flight time | 1h 41m |
| Altitude | 38000 |
| Route | IROSI UZ81 SEVIL DCT GIDMI UZ7 DIKAK |
| Aircraft | A20N/M-SDFGHIRWY/L |
Departure
| Time | 2026-05-08 18:13 |
|---|---|
| Airport | Recife/Guararapes - Gilberto Freyre International Airport (SBRF) |
Arrival
| Time | 2026-05-08 19:55 |
|---|---|
| Airport | Senador Petrônio Portela Airport (SBTE) |
| Time | Latitude | Longitude | Altitude | Speed | Heading |
|---|---|---|---|---|---|
| 2026-05-08 17:50 | -8.13007 | -34.91967 | 46 ft | 0 kts | 72° |
| 2026-05-08 18:05 | -8.13010 | -34.91975 | 46 ft | 4 kts | 70° |
| 2026-05-08 18:05 | -8.13020 | -34.92000 | 41 ft | 4 kts | 62° |
| 2026-05-08 18:05 | -8.13034 | -34.92022 | 41 ft | 4 kts | 35° |
| 2026-05-08 18:05 | -8.13052 | -34.92028 | 47 ft | 0 kts | 342° |
| 2026-05-08 18:07 | -8.13051 | -34.92029 | 47 ft | 1 kts | 342° |
| 2026-05-08 18:08 | -8.13026 | -34.92037 | 48 ft | 8 kts | 341° |
| 2026-05-08 18:08 | -8.12977 | -34.92053 | 47 ft | 7 kts | 341° |
| 2026-05-08 18:08 | -8.12902 | -34.92079 | 48 ft | 15 kts | 341° |
| 2026-05-08 18:08 | -8.12808 | -34.92110 | 46 ft | 13 kts | 342° |
| 2026-05-08 18:09 | -8.12725 | -34.92137 | 49 ft | 11 kts | 342° |
| 2026-05-08 18:09 | -8.12656 | -34.92159 | 49 ft | 10 kts | 342° |
| 2026-05-08 18:09 | -8.12551 | -34.92194 | 49 ft | 21 kts | 342° |
| 2026-05-08 18:09 | -8.12414 | -34.92239 | 47 ft | 20 kts | 341° |
| 2026-05-08 18:10 | -8.12288 | -34.92283 | 47 ft | 18 kts | 341° |
| 2026-05-08 18:10 | -8.12166 | -34.92322 | 44 ft | 19 kts | 341° |
| 2026-05-08 18:10 | -8.12040 | -34.92363 | 41 ft | 19 kts | 341° |
| 2026-05-08 18:10 | -8.11920 | -34.92403 | 41 ft | 17 kts | 343° |
| 2026-05-08 18:11 | -8.11809 | -34.92439 | 41 ft | 16 kts | 342° |
| 2026-05-08 18:11 | -8.11705 | -34.92473 | 41 ft | 15 kts | 341° |
| 2026-05-08 18:11 | -8.11618 | -34.92506 | 41 ft | 12 kts | 332° |
| 2026-05-08 18:11 | -8.11541 | -34.92568 | 45 ft | 19 kts | 319° |
| 2026-05-08 18:12 | -8.11454 | -34.92647 | 45 ft | 15 kts | 307° |
| 2026-05-08 18:12 | -8.11507 | -34.92690 | 41 ft | 13 kts | 166° |
| 2026-05-08 18:12 | -8.11528 | -34.92683 | 45 ft | 0 kts | 161° |
| 2026-05-08 18:12 | -8.11534 | -34.92681 | 45 ft | 5 kts | 161° |
| 2026-05-08 18:13 | -8.11789 | -34.92597 | 40 ft | 75 kts | 162° |
| 2026-05-08 18:13 | -8.12479 | -34.92374 | 49 ft | 131 kts | 162° |
| 2026-05-08 18:13 | -8.13446 | -34.92045 | 375 ft | 151 kts | 161° |
| 2026-05-08 18:13 | -8.14456 | -34.91723 | 1053 ft | 152 kts | 162° |
| 2026-05-08 18:14 | -8.15463 | -34.91397 | 1710 ft | 153 kts | 160° |
| 2026-05-08 18:14 | -8.16532 | -34.91049 | 2088 ft | 172 kts | 161° |
| 2026-05-08 18:14 | -8.17745 | -34.90652 | 2395 ft | 195 kts | 160° |
| 2026-05-08 18:14 | -8.19105 | -34.90209 | 2854 ft | 211 kts | 160° |
| 2026-05-08 18:15 | -8.20448 | -34.89549 | 3433 ft | 226 kts | 135° |
| 2026-05-08 18:15 | -8.21191 | -34.88098 | 3864 ft | 249 kts | 97° |
| 2026-05-08 18:15 | -8.20897 | -34.86318 | 4554 ft | 264 kts | 66° |
| 2026-05-08 18:15 | -8.19869 | -34.84756 | 5431 ft | 270 kts | 53° |
| 2026-05-08 18:16 | -8.18628 | -34.83319 | 6347 ft | 273 kts | 50° |
| 2026-05-08 18:16 | -8.17353 | -34.81882 | 7157 ft | 276 kts | 51° |
| 2026-05-08 18:16 | -8.16103 | -34.80396 | 7972 ft | 279 kts | 52° |
| 2026-05-08 18:16 | -8.14891 | -34.78855 | 8770 ft | 281 kts | 54° |
| 2026-05-08 18:17 | -8.13709 | -34.77267 | 9560 ft | 284 kts | 55° |
| 2026-05-08 18:17 | -8.12543 | -34.75639 | 10215 ft | 292 kts | 56° |
| 2026-05-08 18:17 | -8.11312 | -34.73908 | 10432 ft | 315 kts | 53° |
| 2026-05-08 18:17 | -8.09629 | -34.72408 | 10790 ft | 333 kts | 32° |
| 2026-05-08 18:18 | -8.07429 | -34.71599 | 11388 ft | 342 kts | 10° |
| 2026-05-08 18:18 | -8.05037 | -34.71680 | 12030 ft | 351 kts | 348° |
| 2026-05-08 18:18 | -8.02669 | -34.72357 | 12691 ft | 355 kts | 345° |
| 2026-05-08 18:18 | -8.00296 | -34.73075 | 13337 ft | 358 kts | 345° |
| 2026-05-08 18:19 | -7.97897 | -34.73807 | 13956 ft | 362 kts | 345° |
| 2026-05-08 18:19 | -7.95479 | -34.74561 | 14516 ft | 365 kts | 343° |
| 2026-05-08 18:19 | -7.93069 | -34.75402 | 15093 ft | 369 kts | 341° |
| 2026-05-08 18:19 | -7.90652 | -34.76313 | 15710 ft | 372 kts | 340° |
| 2026-05-08 18:20 | -7.88232 | -34.77253 | 16291 ft | 375 kts | 340° |
| 2026-05-08 18:20 | -7.85787 | -34.78204 | 16860 ft | 378 kts | 340° |
| 2026-05-08 18:20 | -7.83316 | -34.79152 | 17454 ft | 381 kts | 340° |
| 2026-05-08 18:20 | -7.80834 | -34.80113 | 18012 ft | 384 kts | 336° |
| 2026-05-08 18:21 | -7.78497 | -34.81439 | 18512 ft | 388 kts | 324° |
| 2026-05-08 18:21 | -7.76472 | -34.83239 | 18987 ft | 390 kts | 313° |
| 2026-05-08 18:21 | -7.74830 | -34.85471 | 19483 ft | 393 kts | 300° |
| 2026-05-08 18:21 | -7.73580 | -34.87931 | 19969 ft | 395 kts | 297° |
| 2026-05-08 18:22 | -7.72364 | -34.90414 | 20481 ft | 396 kts | 297° |
| 2026-05-08 18:22 | -7.71145 | -34.92908 | 20947 ft | 398 kts | 297° |
| 2026-05-08 18:22 | -7.69920 | -34.95412 | 21416 ft | 399 kts | 297° |
| 2026-05-08 18:22 | -7.68684 | -34.97928 | 21874 ft | 401 kts | 297° |
| 2026-05-08 18:23 | -7.67439 | -35.00458 | 22321 ft | 403 kts | 297° |
| 2026-05-08 18:23 | -7.66190 | -35.02994 | 22756 ft | 406 kts | 297° |
| 2026-05-08 18:23 | -7.64929 | -35.05554 | 23191 ft | 408 kts | 297° |
| 2026-05-08 18:23 | -7.63670 | -35.08117 | 23590 ft | 410 kts | 297° |
| 2026-05-08 18:24 | -7.62399 | -35.10705 | 23945 ft | 413 kts | 297° |
| 2026-05-08 18:24 | -7.61121 | -35.13304 | 24328 ft | 414 kts | 297° |
| 2026-05-08 18:24 | -7.59837 | -35.15908 | 24678 ft | 416 kts | 297° |
| 2026-05-08 18:24 | -7.58547 | -35.18525 | 25032 ft | 418 kts | 297° |
| 2026-05-08 18:25 | -7.57253 | -35.21151 | 25374 ft | 420 kts | 297° |
| 2026-05-08 18:25 | -7.55952 | -35.23793 | 25717 ft | 421 kts | 297° |
| 2026-05-08 18:25 | -7.54629 | -35.26479 | 26065 ft | 423 kts | 297° |
| 2026-05-08 18:25 | -7.53325 | -35.29127 | 26393 ft | 425 kts | 297° |
| 2026-05-08 18:26 | -7.51997 | -35.31817 | 26726 ft | 427 kts | 297° |
| 2026-05-08 18:26 | -7.50673 | -35.34497 | 27051 ft | 428 kts | 297° |
| 2026-05-08 18:26 | -7.49341 | -35.37192 | 27371 ft | 430 kts | 297° |
| 2026-05-08 18:26 | -7.48002 | -35.39898 | 27690 ft | 432 kts | 297° |
| 2026-05-08 18:27 | -7.46660 | -35.42608 | 28006 ft | 434 kts | 297° |
| 2026-05-08 18:27 | -7.45750 | -35.44447 | 28206 ft | 435 kts | 297° |
| 2026-05-08 18:27 | -7.43957 | -35.48067 | 28623 ft | 437 kts | 296° |
| 2026-05-08 18:27 | -7.42487 | -35.50758 | 28948 ft | 439 kts | 303° |
| 2026-05-08 18:28 | -7.40604 | -35.53191 | 29243 ft | 442 kts | 313° |
| 2026-05-08 18:28 | -7.38305 | -35.55312 | 29527 ft | 444 kts | 320° |
| 2026-05-08 18:28 | -7.35927 | -35.57306 | 29816 ft | 446 kts | 319° |
| 2026-05-08 18:28 | -7.33538 | -35.59312 | 30088 ft | 448 kts | 319° |
| 2026-05-08 18:29 | -7.31140 | -35.61330 | 30319 ft | 450 kts | 319° |
| 2026-05-08 18:29 | -7.28733 | -35.63358 | 30563 ft | 451 kts | 319° |
| 2026-05-08 18:29 | -7.26328 | -35.65388 | 30794 ft | 452 kts | 319° |
| 2026-05-08 18:29 | -7.23910 | -35.67432 | 31041 ft | 453 kts | 319° |
| 2026-05-08 18:30 | -7.21496 | -35.69474 | 31280 ft | 454 kts | 319° |
| 2026-05-08 18:30 | -7.19077 | -35.71519 | 31606 ft | 453 kts | 319° |
| 2026-05-08 18:30 | -7.16667 | -35.73555 | 31969 ft | 451 kts | 320° |
| 2026-05-08 18:30 | -7.14259 | -35.75584 | 32326 ft | 450 kts | 320° |
| 2026-05-08 18:31 | -7.11865 | -35.77597 | 32680 ft | 448 kts | 320° |
| 2026-05-08 18:31 | -7.09473 | -35.79597 | 33066 ft | 446 kts | 320° |
| 2026-05-08 18:31 | -7.07137 | -35.81645 | 33419 ft | 444 kts | 314° |
| 2026-05-08 18:31 | -7.05163 | -35.84027 | 33774 ft | 443 kts | 304° |
| 2026-05-08 18:32 | -7.03659 | -35.86727 | 34106 ft | 442 kts | 294° |
| 2026-05-08 18:32 | -7.02673 | -35.89653 | 34407 ft | 443 kts | 285° |
| 2026-05-08 18:32 | -7.01940 | -35.92660 | 34688 ft | 442 kts | 285° |
| 2026-05-08 18:32 | -7.01203 | -35.95655 | 34983 ft | 441 kts | 285° |
| 2026-05-08 18:33 | -7.00452 | -35.98684 | 35265 ft | 439 kts | 285° |
| 2026-05-08 18:33 | -6.99708 | -36.01664 | 35543 ft | 438 kts | 285° |
| 2026-05-08 18:33 | -6.98967 | -36.04635 | 35813 ft | 437 kts | 285° |
| 2026-05-08 18:33 | -6.98230 | -36.07596 | 36073 ft | 436 kts | 285° |
| 2026-05-08 18:34 | -6.97492 | -36.10557 | 36334 ft | 435 kts | 285° |
| 2026-05-08 18:34 | -6.96757 | -36.13505 | 36591 ft | 434 kts | 284° |
| 2026-05-08 18:34 | -6.96027 | -36.16454 | 36833 ft | 433 kts | 284° |
| 2026-05-08 18:34 | -6.95297 | -36.19396 | 37072 ft | 432 kts | 284° |
| 2026-05-08 18:35 | -6.94573 | -36.22323 | 37308 ft | 431 kts | 284° |
| 2026-05-08 18:35 | -6.93848 | -36.25251 | 37540 ft | 430 kts | 284° |
| 2026-05-08 18:35 | -6.93125 | -36.28165 | 37765 ft | 430 kts | 284° |
| 2026-05-08 18:35 | -6.92396 | -36.31089 | 37935 ft | 429 kts | 284° |
| 2026-05-08 18:36 | -6.90942 | -36.36903 | 37971 ft | 428 kts | 284° |
| 2026-05-08 18:36 | -6.89743 | -36.41729 | 37968 ft | 427 kts | 284° |
| 2026-05-08 18:37 | -6.88305 | -36.47528 | 37964 ft | 427 kts | 284° |
| 2026-05-08 18:37 | -6.86849 | -36.53362 | 37958 ft | 427 kts | 284° |
| 2026-05-08 18:38 | -6.85404 | -36.59153 | 37957 ft | 427 kts | 284° |
| 2026-05-08 18:38 | -6.83951 | -36.64945 | 37952 ft | 427 kts | 284° |
| 2026-05-08 18:39 | -6.82500 | -36.70734 | 37952 ft | 427 kts | 284° |
| 2026-05-08 18:39 | -6.81045 | -36.76536 | 37951 ft | 427 kts | 284° |
| 2026-05-08 18:40 | -6.79602 | -36.82329 | 37945 ft | 427 kts | 284° |
| 2026-05-08 18:40 | -6.78160 | -36.88124 | 37941 ft | 427 kts | 284° |
| 2026-05-08 18:41 | -6.76715 | -36.93924 | 37936 ft | 427 kts | 284° |
| 2026-05-08 18:41 | -6.75263 | -36.99719 | 37934 ft | 427 kts | 284° |
| 2026-05-08 18:42 | -6.73801 | -37.05515 | 37933 ft | 428 kts | 284° |
| 2026-05-08 18:42 | -6.72349 | -37.11324 | 37928 ft | 428 kts | 284° |
| 2026-05-08 18:43 | -6.70895 | -37.17126 | 37923 ft | 428 kts | 284° |
| 2026-05-08 18:43 | -6.69436 | -37.22936 | 37922 ft | 428 kts | 284° |
| 2026-05-08 18:44 | -6.67969 | -37.28785 | 37923 ft | 428 kts | 284° |
| 2026-05-08 18:44 | -6.66508 | -37.34596 | 37931 ft | 429 kts | 284° |
| 2026-05-08 18:45 | -6.65044 | -37.40410 | 37921 ft | 429 kts | 284° |
| 2026-05-08 18:45 | -6.63575 | -37.46261 | 37920 ft | 429 kts | 284° |
| 2026-05-08 18:46 | -6.62117 | -37.52082 | 37924 ft | 429 kts | 284° |
| 2026-05-08 18:46 | -6.60650 | -37.57896 | 37929 ft | 429 kts | 284° |
| 2026-05-08 18:47 | -6.59189 | -37.63709 | 37928 ft | 429 kts | 284° |
| 2026-05-08 18:47 | -6.57727 | -37.69519 | 37922 ft | 429 kts | 284° |
| 2026-05-08 18:48 | -6.56263 | -37.75332 | 37922 ft | 429 kts | 284° |
| 2026-05-08 18:48 | -6.54799 | -37.81144 | 37934 ft | 429 kts | 284° |
| 2026-05-08 18:49 | -6.53330 | -37.86959 | 37926 ft | 429 kts | 284° |
| 2026-05-08 18:49 | -6.51867 | -37.92772 | 37925 ft | 429 kts | 284° |
| 2026-05-08 18:50 | -6.50393 | -37.98584 | 37930 ft | 429 kts | 284° |
| 2026-05-08 18:50 | -6.48922 | -38.04396 | 37927 ft | 429 kts | 284° |
| 2026-05-08 18:51 | -6.47454 | -38.10208 | 37932 ft | 429 kts | 284° |
| 2026-05-08 18:51 | -6.45982 | -38.16018 | 37933 ft | 429 kts | 284° |
| 2026-05-08 18:52 | -6.44514 | -38.21828 | 37931 ft | 429 kts | 284° |
| 2026-05-08 18:52 | -6.43046 | -38.27633 | 37928 ft | 429 kts | 284° |
| 2026-05-08 18:53 | -6.41565 | -38.33476 | 37930 ft | 428 kts | 284° |
| 2026-05-08 18:53 | -6.40091 | -38.39277 | 37932 ft | 428 kts | 284° |
| 2026-05-08 18:54 | -6.38624 | -38.45076 | 37927 ft | 428 kts | 284° |
| 2026-05-08 18:54 | -6.37156 | -38.50880 | 37925 ft | 428 kts | 284° |
| 2026-05-08 18:55 | -6.34948 | -38.59577 | 37928 ft | 428 kts | 284° |
| 2026-05-08 18:56 | -6.33476 | -38.65370 | 37919 ft | 428 kts | 284° |
| 2026-05-08 18:56 | -6.31997 | -38.71169 | 37917 ft | 428 kts | 284° |
| 2026-05-08 18:57 | -6.30523 | -38.76961 | 37912 ft | 428 kts | 284° |
| 2026-05-08 18:57 | -6.29043 | -38.82754 | 37915 ft | 428 kts | 284° |
| 2026-05-08 18:58 | -6.27567 | -38.88546 | 37914 ft | 428 kts | 284° |
| 2026-05-08 18:58 | -6.26084 | -38.94376 | 37911 ft | 428 kts | 284° |
| 2026-05-08 18:59 | -6.24615 | -39.00170 | 37905 ft | 428 kts | 284° |
| 2026-05-08 18:59 | -6.23140 | -39.05960 | 37908 ft | 428 kts | 284° |
| 2026-05-08 19:00 | -6.21908 | -39.10772 | 37906 ft | 428 kts | 284° |
| 2026-05-08 19:00 | -6.20185 | -39.17537 | 37903 ft | 428 kts | 284° |
| 2026-05-08 19:01 | -6.18702 | -39.23328 | 37904 ft | 428 kts | 284° |
| 2026-05-08 19:01 | -6.17224 | -39.29116 | 37909 ft | 428 kts | 284° |
| 2026-05-08 19:02 | -6.15740 | -39.34912 | 37908 ft | 428 kts | 284° |
| 2026-05-08 19:02 | -6.14261 | -39.40703 | 37909 ft | 428 kts | 284° |
| 2026-05-08 19:03 | -6.12787 | -39.46494 | 37910 ft | 428 kts | 284° |
| 2026-05-08 19:03 | -6.11312 | -39.52287 | 37909 ft | 428 kts | 284° |
| 2026-05-08 19:04 | -6.09826 | -39.58081 | 37918 ft | 428 kts | 284° |
| 2026-05-08 19:04 | -6.08326 | -39.63914 | 37917 ft | 428 kts | 284° |
| 2026-05-08 19:05 | -6.06851 | -39.69671 | 37915 ft | 428 kts | 284° |
| 2026-05-08 19:05 | -6.05355 | -39.75502 | 37918 ft | 428 kts | 284° |
| 2026-05-08 19:06 | -6.03869 | -39.81296 | 37920 ft | 428 kts | 284° |
| 2026-05-08 19:06 | -6.02384 | -39.87091 | 37920 ft | 428 kts | 284° |
| 2026-05-08 19:07 | -6.01142 | -39.91910 | 37922 ft | 429 kts | 284° |
| 2026-05-08 19:07 | -5.99653 | -39.97706 | 37919 ft | 429 kts | 284° |
| 2026-05-08 19:08 | -5.97907 | -40.04480 | 37921 ft | 429 kts | 284° |
| 2026-05-08 19:08 | -5.96668 | -40.09299 | 37924 ft | 429 kts | 284° |
| 2026-05-08 19:09 | -5.95176 | -40.15098 | 37920 ft | 429 kts | 284° |
| 2026-05-08 19:09 | -5.93689 | -40.20904 | 37924 ft | 429 kts | 284° |
| 2026-05-08 19:10 | -5.92188 | -40.26743 | 37921 ft | 429 kts | 284° |
| 2026-05-08 19:10 | -5.90693 | -40.32546 | 37919 ft | 429 kts | 284° |
| 2026-05-08 19:11 | -5.89201 | -40.38352 | 37923 ft | 429 kts | 284° |
| 2026-05-08 19:11 | -5.87706 | -40.44160 | 37925 ft | 429 kts | 284° |
| 2026-05-08 19:12 | -5.86209 | -40.49965 | 37919 ft | 429 kts | 284° |
| 2026-05-08 19:12 | -5.84711 | -40.55768 | 37921 ft | 429 kts | 284° |
| 2026-05-08 19:13 | -5.83203 | -40.61572 | 37924 ft | 430 kts | 284° |
| 2026-05-08 19:13 | -5.81405 | -40.67297 | 37928 ft | 430 kts | 288° |
| 2026-05-08 19:14 | -5.79349 | -40.72939 | 37926 ft | 430 kts | 289° |
| 2026-05-08 19:14 | -5.77309 | -40.78585 | 37923 ft | 430 kts | 288° |
| 2026-05-08 19:15 | -5.75337 | -40.84258 | 37928 ft | 430 kts | 288° |
| 2026-05-08 19:15 | -5.73427 | -40.89814 | 37928 ft | 430 kts | 288° |
| 2026-05-08 19:16 | -5.71466 | -40.95496 | 37925 ft | 431 kts | 288° |
| 2026-05-08 19:16 | -5.69481 | -41.01214 | 37921 ft | 431 kts | 288° |
| 2026-05-08 19:17 | -5.67511 | -41.06895 | 37917 ft | 431 kts | 288° |
| 2026-05-08 19:17 | -5.65542 | -41.12576 | 37916 ft | 431 kts | 288° |
| 2026-05-08 19:18 | -5.63567 | -41.18261 | 37817 ft | 432 kts | 288° |
| 2026-05-08 19:18 | -5.62574 | -41.21107 | 37555 ft | 432 kts | 288° |
| 2026-05-08 19:18 | -5.61585 | -41.23947 | 37250 ft | 431 kts | 288° |
| 2026-05-08 19:18 | -5.60595 | -41.26797 | 36587 ft | 433 kts | 288° |
| 2026-05-08 19:19 | -5.59604 | -41.29652 | 35868 ft | 435 kts | 288° |
| 2026-05-08 19:19 | -5.58609 | -41.32517 | 35304 ft | 434 kts | 288° |
| 2026-05-08 19:19 | -5.57618 | -41.35363 | 34798 ft | 431 kts | 288° |
| 2026-05-08 19:19 | -5.56631 | -41.38202 | 34270 ft | 429 kts | 288° |
| 2026-05-08 19:20 | -5.55652 | -41.41027 | 33719 ft | 428 kts | 288° |
| 2026-05-08 19:20 | -5.55008 | -41.42891 | 33346 ft | 427 kts | 288° |
| 2026-05-08 19:20 | -5.53709 | -41.46636 | 32653 ft | 423 kts | 288° |
| 2026-05-08 19:20 | -5.52740 | -41.49408 | 32139 ft | 420 kts | 288° |
| 2026-05-08 19:21 | -5.51771 | -41.52171 | 31628 ft | 418 kts | 289° |
| 2026-05-08 19:21 | -5.50807 | -41.54920 | 31124 ft | 416 kts | 288° |
| 2026-05-08 19:21 | -5.49857 | -41.57653 | 30624 ft | 414 kts | 288° |
| 2026-05-08 19:21 | -5.48910 | -41.60379 | 30132 ft | 413 kts | 288° |
| 2026-05-08 19:22 | -5.47969 | -41.63094 | 29591 ft | 411 kts | 288° |
| 2026-05-08 19:22 | -5.47034 | -41.65789 | 29118 ft | 407 kts | 289° |
| 2026-05-08 19:22 | -5.46094 | -41.68494 | 28647 ft | 403 kts | 289° |
| 2026-05-08 19:22 | -5.45173 | -41.71135 | 28191 ft | 399 kts | 289° |
| 2026-05-08 19:23 | -5.44261 | -41.73749 | 27744 ft | 395 kts | 289° |
| 2026-05-08 19:23 | -5.43356 | -41.76340 | 27300 ft | 391 kts | 289° |
| 2026-05-08 19:23 | -5.42463 | -41.78901 | 26860 ft | 388 kts | 289° |
| 2026-05-08 19:23 | -5.41574 | -41.81446 | 26419 ft | 385 kts | 289° |
| 2026-05-08 19:24 | -5.40694 | -41.83968 | 25986 ft | 382 kts | 289° |
| 2026-05-08 19:24 | -5.39820 | -41.86477 | 25538 ft | 379 kts | 289° |
| 2026-05-08 19:24 | -5.38955 | -41.88967 | 25092 ft | 378 kts | 289° |
| 2026-05-08 19:24 | -5.38091 | -41.91455 | 24628 ft | 376 kts | 289° |
| 2026-05-08 19:25 | -5.37231 | -41.93933 | 24163 ft | 375 kts | 290° |
| 2026-05-08 19:25 | -5.36371 | -41.96402 | 23689 ft | 375 kts | 290° |
| 2026-05-08 19:25 | -5.35507 | -41.98873 | 23166 ft | 375 kts | 290° |
| 2026-05-08 19:25 | -5.34644 | -42.01331 | 22682 ft | 372 kts | 290° |
| 2026-05-08 19:26 | -5.33787 | -42.03773 | 22207 ft | 370 kts | 290° |
| 2026-05-08 19:26 | -5.32869 | -42.06175 | 21735 ft | 368 kts | 297° |
| 2026-05-08 19:26 | -5.31542 | -42.08358 | 21270 ft | 366 kts | 306° |
| 2026-05-08 19:26 | -5.30060 | -42.10433 | 20795 ft | 365 kts | 306° |
| 2026-05-08 19:27 | -5.28588 | -42.12500 | 20338 ft | 364 kts | 306° |
| 2026-05-08 19:27 | -5.27118 | -42.14567 | 19876 ft | 364 kts | 306° |
| 2026-05-08 19:27 | -5.25653 | -42.16631 | 19415 ft | 364 kts | 306° |
| 2026-05-08 19:27 | -5.24184 | -42.18700 | 18949 ft | 363 kts | 306° |
| 2026-05-08 19:28 | -5.22716 | -42.20764 | 18505 ft | 363 kts | 306° |
| 2026-05-08 19:28 | -5.21226 | -42.22856 | 18016 ft | 364 kts | 306° |
| 2026-05-08 19:28 | -5.19776 | -42.24891 | 17542 ft | 362 kts | 306° |
| 2026-05-08 19:28 | -5.18296 | -42.26972 | 17087 ft | 360 kts | 306° |
| 2026-05-08 19:29 | -5.16846 | -42.29012 | 16648 ft | 359 kts | 306° |
| 2026-05-08 19:29 | -5.15397 | -42.31050 | 16205 ft | 358 kts | 306° |
| 2026-05-08 19:29 | -5.13952 | -42.33080 | 15780 ft | 357 kts | 306° |
| 2026-05-08 19:29 | -5.12511 | -42.35106 | 15345 ft | 357 kts | 306° |
| 2026-05-08 19:30 | -5.11070 | -42.37129 | 14906 ft | 356 kts | 306° |
| 2026-05-08 19:30 | -5.09630 | -42.39146 | 14487 ft | 356 kts | 306° |
| 2026-05-08 19:30 | -5.08195 | -42.41160 | 14133 ft | 353 kts | 306° |
| 2026-05-08 19:30 | -5.07289 | -42.42433 | 13841 ft | 354 kts | 306° |
| 2026-05-08 19:35 | -5.07272 | -42.42457 | 13833 ft | 354 kts | 306° |
| 2026-05-08 19:35 | -5.05839 | -42.44456 | 13479 ft | 350 kts | 306° |
| 2026-05-08 19:35 | -5.04413 | -42.46460 | 13059 ft | 349 kts | 306° |
| 2026-05-08 19:36 | -5.03006 | -42.48445 | 12590 ft | 350 kts | 306° |
| 2026-05-08 19:36 | -5.01614 | -42.50412 | 12151 ft | 348 kts | 306° |
| 2026-05-08 19:36 | -5.00212 | -42.52391 | 11854 ft | 343 kts | 306° |
| 2026-05-08 19:36 | -4.98830 | -42.54334 | 11428 ft | 343 kts | 306° |
| 2026-05-08 19:37 | -4.97447 | -42.56275 | 11000 ft | 341 kts | 306° |
| 2026-05-08 19:37 | -4.96083 | -42.58190 | 10821 ft | 332 kts | 306° |
| 2026-05-08 19:37 | -4.94757 | -42.60051 | 10699 ft | 323 kts | 306° |
| 2026-05-08 19:37 | -4.93464 | -42.61862 | 10455 ft | 317 kts | 306° |
| 2026-05-08 19:38 | -4.92182 | -42.63659 | 10020 ft | 320 kts | 306° |
| 2026-05-08 19:38 | -4.90853 | -42.65522 | 9159 ft | 336 kts | 306° |
| 2026-05-08 19:38 | -4.89923 | -42.66828 | 8566 ft | 345 kts | 306° |
| 2026-05-08 19:38 | -4.88516 | -42.68801 | 7971 ft | 348 kts | 306° |
| 2026-05-08 19:39 | -4.87113 | -42.70766 | 7489 ft | 346 kts | 306° |
| 2026-05-08 19:39 | -4.85715 | -42.72728 | 7009 ft | 344 kts | 305° |
| 2026-05-08 19:39 | -4.84676 | -42.74860 | 6510 ft | 341 kts | 281° |
| 2026-05-08 19:39 | -4.84696 | -42.77204 | 5988 ft | 336 kts | 255° |
| 2026-05-08 19:40 | -4.85437 | -42.79386 | 5463 ft | 323 kts | 244° |
| 2026-05-08 19:40 | -4.86425 | -42.81342 | 4988 ft | 308 kts | 239° |
| 2026-05-08 19:40 | -4.87545 | -42.83115 | 4453 ft | 293 kts | 225° |
| 2026-05-08 19:40 | -4.89195 | -42.84146 | 4036 ft | 273 kts | 192° |
| 2026-05-08 19:41 | -4.91030 | -42.84323 | 3666 ft | 259 kts | 176° |
| 2026-05-08 19:41 | -4.92772 | -42.84151 | 3326 ft | 245 kts | 170° |
| 2026-05-08 19:41 | -4.94440 | -42.83881 | 2918 ft | 240 kts | 169° |
| 2026-05-08 19:41 | -4.96065 | -42.83610 | 2517 ft | 234 kts | 169° |
| 2026-05-08 19:42 | -4.97662 | -42.83366 | 2128 ft | 231 kts | 171° |
| 2026-05-08 19:42 | -4.99256 | -42.83147 | 1708 ft | 227 kts | 172° |
| 2026-05-08 19:42 | -5.00778 | -42.82957 | 1324 ft | 215 kts | 172° |
| 2026-05-08 19:42 | -5.02238 | -42.82788 | 969 ft | 206 kts | 171° |
| 2026-05-08 19:43 | -5.03604 | -42.82637 | 630 ft | 190 kts | 172° |
| 2026-05-08 19:43 | -5.04870 | -42.82501 | 496 ft | 166 kts | 173° |
| 2026-05-08 19:43 | -5.06060 | -42.82399 | 1000 ft | 181 kts | 174° |
| 2026-05-08 19:43 | -5.07365 | -42.82313 | 1561 ft | 190 kts | 174° |
| 2026-05-08 19:44 | -5.08760 | -42.82179 | 1904 ft | 212 kts | 173° |
| 2026-05-08 19:44 | -5.10254 | -42.81983 | 2569 ft | 218 kts | 163° |
| 2026-05-08 19:44 | -5.11566 | -42.81229 | 3119 ft | 222 kts | 134° |
| 2026-05-08 19:44 | -5.12375 | -42.79879 | 3266 ft | 240 kts | 105° |
| 2026-05-08 19:45 | -5.12370 | -42.78185 | 3298 ft | 251 kts | 73° |
| 2026-05-08 19:45 | -5.11414 | -42.76729 | 3311 ft | 258 kts | 40° |
| 2026-05-08 19:45 | -5.09783 | -42.76017 | 3308 ft | 261 kts | 7° |
| 2026-05-08 19:45 | -5.07960 | -42.75962 | 3302 ft | 263 kts | 2° |
| 2026-05-08 19:46 | -5.06129 | -42.75921 | 3306 ft | 263 kts | 3° |
| 2026-05-08 19:46 | -5.04302 | -42.75867 | 3299 ft | 262 kts | 2° |
| 2026-05-08 19:46 | -5.00650 | -42.75746 | 3300 ft | 262 kts | 3° |
| 2026-05-08 19:47 | -4.98828 | -42.75685 | 3289 ft | 260 kts | 4° |
| 2026-05-08 19:47 | -4.97005 | -42.75623 | 3315 ft | 263 kts | 4° |
| 2026-05-08 19:47 | -4.95206 | -42.75564 | 3296 ft | 251 kts | 2° |
| 2026-05-08 19:47 | -4.93507 | -42.75512 | 3291 ft | 239 kts | 3° |
| 2026-05-08 19:48 | -4.91883 | -42.75464 | 3310 ft | 232 kts | 2° |
| 2026-05-08 19:48 | -4.90305 | -42.75417 | 3301 ft | 221 kts | 3° |
| 2026-05-08 19:48 | -4.88802 | -42.75377 | 3294 ft | 213 kts | 0° |
| 2026-05-08 19:48 | -4.87388 | -42.75736 | 3318 ft | 212 kts | 330° |
| 2026-05-08 19:49 | -4.86313 | -42.76727 | 3311 ft | 210 kts | 301° |
| 2026-05-08 19:49 | -4.85828 | -42.78093 | 3101 ft | 213 kts | 272° |
| 2026-05-08 19:49 | -4.86067 | -42.79537 | 2975 ft | 209 kts | 244° |
| 2026-05-08 19:49 | -4.86692 | -42.80813 | 2876 ft | 197 kts | 241° |
| 2026-05-08 19:50 | -4.87281 | -42.82012 | 2727 ft | 186 kts | 242° |
| 2026-05-08 19:50 | -4.87940 | -42.83073 | 2600 ft | 174 kts | 223° |
| 2026-05-08 19:50 | -4.88899 | -42.83759 | 2482 ft | 168 kts | 199° |
| 2026-05-08 19:50 | -4.90031 | -42.84016 | 2394 ft | 165 kts | 179° |
| 2026-05-08 19:51 | -4.91211 | -42.83910 | 2296 ft | 174 kts | 174° |
| 2026-05-08 19:51 | -4.92390 | -42.83786 | 2196 ft | 168 kts | 171° |
| 2026-05-08 19:51 | -4.93557 | -42.83664 | 2095 ft | 167 kts | 172° |
| 2026-05-08 19:51 | -4.94714 | -42.83545 | 2011 ft | 168 kts | 172° |
| 2026-05-08 19:52 | -4.95853 | -42.83429 | 1931 ft | 159 kts | 172° |
| 2026-05-08 19:52 | -4.96907 | -42.83323 | 1827 ft | 147 kts | 172° |
| 2026-05-08 19:52 | -4.97913 | -42.83219 | 1645 ft | 144 kts | 171° |
| 2026-05-08 19:52 | -4.98899 | -42.83116 | 1429 ft | 142 kts | 171° |
| 2026-05-08 19:53 | -4.99870 | -42.83014 | 1252 ft | 141 kts | 172° |
| 2026-05-08 19:53 | -5.00843 | -42.82912 | 1070 ft | 141 kts | 172° |
| 2026-05-08 19:53 | -5.01820 | -42.82810 | 885 ft | 141 kts | 172° |
| 2026-05-08 19:53 | -5.02800 | -42.82707 | 682 ft | 140 kts | 173° |
| 2026-05-08 19:54 | -5.03777 | -42.82606 | 503 ft | 141 kts | 172° |
| 2026-05-08 19:54 | -5.04735 | -42.82508 | 320 ft | 138 kts | 172° |
| 2026-05-08 19:54 | -5.05654 | -42.82413 | 221 ft | 123 kts | 173° |
| 2026-05-08 19:54 | -5.06326 | -42.82339 | 217 ft | 58 kts | 173° |
| 2026-05-08 19:55 | -5.06527 | -42.82318 | 221 ft | 22 kts | 173° |
| 2026-05-08 19:55 | -5.06602 | -42.82294 | 216 ft | 11 kts | 127° |
| 2026-05-08 19:55 | -5.06582 | -42.82230 | 216 ft | 10 kts | 40° |
| 2026-05-08 19:55 | -5.06532 | -42.82194 | 221 ft | 8 kts | 18° |
| 2026-05-08 19:56 | -5.06485 | -42.82198 | 216 ft | 6 kts | 353° |
| 2026-05-08 19:56 | -5.06442 | -42.82203 | 218 ft | 6 kts | 352° |
| 2026-05-08 19:56 | -5.06404 | -42.82208 | 216 ft | 5 kts | 353° |
| 2026-05-08 19:56 | -5.06375 | -42.82206 | 216 ft | 4 kts | 34° |
| 2026-05-08 19:57 | -5.06366 | -42.82187 | 220 ft | 3 kts | 77° |
| 2026-05-08 19:57 | -5.06364 | -42.82173 | 215 ft | 1 kts | 83° |
| 2026-05-08 19:57 | -5.06364 | -42.82171 | 215 ft | 0 kts | 83° |